セントジョンズ の空港の天気 - METARとTAF

セント・ジョンズ国際空港 ( CYYT / YYT ) - カナダ ニューファンドランド・ラブラドール州セントジョンズ
飛行場実況気象(Metar)
観測時間12/14 02:30 NST (12/14 06:00 UTC)
風向・風速西 12m/s 瞬間風速18m/s
視程10km以上
天気現象
全天を覆う雲 雲底高度 4880m
気温-7℃
湿度86%
気圧1015.6hPa
METARCYYT 140600Z 28023G35KT 15SM OVC160 M07/M09 A2996 RMK AC8 SLP156
過去の天気等 Google飛行場航空写真 Wunderground天気予報

過去48時間のMETAR

飛行場予報(TAF)
発表時間: 12/14 02:08 NST (12/14 05:38 UTC)
予報対象時間: 14日2時 NST ~ 15日2時 NST
風向・風速西 8m/s 瞬間風速 13m/s
視程10km以上
全天の4割程度の雲 雲底高度 6100m
14日5時 NST から
風向・風速西北西 10m/s 瞬間風速 18m/s
視程10km以上
全天の4割程度の雲 雲底高度 3660m
14日16時 NST から
風向・風速西 10m/s 瞬間風速 15m/s
視程10km以上
全天の4割程度の雲 雲底高度 6100m
14日18時 NST ~ 14日20時 NST に徐々に
風向・風速西 9m/s 瞬間風速 14m/s
TAF CYYT 140538Z 1406/1506 27015G25KT P6SM SCT200
FM140900 29020G35KT P6SM SCT120
FM142000 28020G30KT P6SM SCT200
BECMG 1422/1424 28018G28KT RMK NXT FCST BY 141200Z